Unalaska Airport (DUT/PADU)




Flight Aircraft Arriving
GRZ5369 B722
B738
PANC - Ted Stevens Anchorage International Airport
United StatesAlaska Anchorage, Alaska
GRZ5373 SF34
PACD - Cold Bay Airport
United StatesAlaska Cold Bay, Alaska
Flight Aircraft Departing
GRZ5368 B722
B738
PANC - Ted Stevens Anchorage International Airport
United StatesAlaska Anchorage, Alaska
GRZ5372 SF34
PACD - Cold Bay Airport
United StatesAlaska Cold Bay, Alaska
Airport Information
Location: Unalaska, US
Coordinates: 53.8989 / -166.545
Elevation:
Time Offset:
Local Time:
UTC Time:
Jet A Price: $0.74/lbs

Current Weather
METAR: PADU 051456Z AUTO 09028G40KT 9SM -RA OVC018 04/02 A2906 RMK AO2 PK WND 10049/1415 SLP846 P0004 60017 T00440017 58011
TAF: PADU 051130Z 0512/0612 09025G35KT 4SM -RA BR BKN015 OVC020 FM052100 05030G40KT 5SM -RASN BR OVC015 FM060500 01025G35KT P6SM -SN OVC020

Recent Arrivals
Date Flight Type Depart
09/06/2020 GRZ5368 B722 Ted Stevens Anchorage International Airport (PANC)
12/14/2019 GRZ5368 B738 Ted Stevens Anchorage International Airport (PANC)
11/27/2019 GRZ5368 B722 Ted Stevens Anchorage International Airport (PANC)
Recent Departures
Date Flight Type Arrive
09/06/2020 GRZ5369 B722 Ted Stevens Anchorage International Airport (PANC)
12/16/2019 GRZ5369 B738 Ted Stevens Anchorage International Airport (PANC)
11/27/2019 GRZ5369 B722 Ted Stevens Anchorage International Airport (PANC)